KSANKTUS

Guest
Details From KSAN - San Diego Intl
To KTUS - Tucson Intl
Flight Number -
Tags Generated
Created
Modified
Stats Distance 319 nm / 590 km
Max Altitude 0 ft / 0 m
Waypoints 3
Social Downloads 1
Likes 0
Share VATSIM

Download

Looking for another format? Having issues loading an existing format? Contact us
Advertisement - Login to hide

Notes

Generated

Route

KSAN RYAN KTUS

ID Type Via Altitude Latitude Longitude Leg Dist Tot Dist Heading (true) Name
O KSAN APT - 0 ft / 0 m 32.73712˚ -117.20435˚ - 0 nm - -
RYAN FIX - 0 ft / 0 m 32.13839˚ -111.16153˚ 308 nm 308 nm 95° / 98° -
O KTUS APT - 0 ft / 0 m 32.11717˚ -110.95904˚ 10 nm 318 nm 97° / 97° -

Altitude Profile

Advertisement - Login to hide

Weather


0- 5 10 15 20 25 30 35+ Temperature / ° C

Clouds and Precipitation
Forecast for 2018-01-22 06:00 UTC. Updated an hour ago

Ground ~20,000 ft ~40,000 ft Winds

KSAN

Details ICAO KSAN (SAN)
Name San Diego Intl
Region United States
Timezone America/Los_Angeles (UTC-8.0)
Stats Elevation 17 ft / 5 m (AMSL)
Location 32.733556° -117.189658°
Runways 1
Magnetic Variation 11.516° E

METAR

KSAN 220151Z 32004KT 10SM BKN250 14/04 A3028 RMK AO2 SLP253 T01440044 $

Decode

TAF

TAF KSAN 212320Z 2200/2306 VRB06KT P6SM BKN200 FM222000 30009KT P6SM BKN200 FM230200 VRB06KT P6SM BKN200

Decode

Departure Runways

ID Width Length Bearing (true) Bearing (mag) Surface Threshold Offset Overrun Length
09 200 ft / 61 m 9,387 ft / 2,861 m 106.07° 94.55° Asphalt 699 ft / 213 m 269 ft / 82 m
27 200 ft / 61 m 9,387 ft / 2,861 m 286.08° 274.56° Asphalt 1,811 ft / 552 m 0 ft / 0 m

KTUS

Details ICAO KTUS (TUS)
Name Tucson Intl
Region United States
Timezone America/Phoenix (UTC-7.0)
Stats Elevation 2,643 ft / 806 m (AMSL)
Location 32.116858° -110.942155°
Runways 3
Magnetic Variation 9.779° E

METAR

KTUS 220153Z 33005KT 10SM CLR 08/M08 A3023 RMK AO2 SLP231 T00781083

Decode

TAF

KTUS 212342Z 2200/2224 34012KT P6SM BKN250 FM220400 15006KT P6SM BKN250 FM221700 09006KT P6SM BKN250

Decode

Destination Runways

ID Width Length Bearing (true) Bearing (mag) Surface Threshold Offset Overrun Length
03 150 ft / 46 m 7,004 ft / 2,135 m 44.90° 35.12° Asphalt 841 ft / 256 m 0 ft / 0 m
11L 150 ft / 46 m 11,000 ft / 3,353 m 135.16° 125.38° Asphalt 0 ft / 0 m 3,257 ft / 993 m
11R 75 ft / 23 m 8,412 ft / 2,564 m 135.16° 125.38° Asphalt 1,410 ft / 430 m 0 ft / 0 m
21 150 ft / 46 m 7,004 ft / 2,135 m 224.91° 215.13° Asphalt 0 ft / 0 m 0 ft / 0 m
29L 75 ft / 23 m 8,412 ft / 2,564 m 315.17° 305.39° Asphalt 0 ft / 0 m 0 ft / 0 m
29R 150 ft / 46 m 11,000 ft / 3,353 m 315.17° 305.39° Asphalt 0 ft / 0 m 1,000 ft / 305 m

Approach Navaids

Runway Type Ident Frequency Range Bearing (true) Bearing (mag) Slope Elevation
11L Localiser ITUS 111.70 MHz 35 nm / 65 km 135.18° 125.40° - 2,660 ft / 811 m (AMSL)
11L Glidescope ITUS 111.70 MHz 10 nm / 19 km 135.17° 125.39° 3.00° 2,600 ft / 792 m (AMSL)
11L DME ITUS 111.70 MHz 25 nm / 46 km - - - 2,660 ft / 811 m (AMSL)

Popular Alternatives